Time;durP1;ratioP1;P1;durP2;ratioP2;P2;SDS_P1;SDS_P2;PMS_P1;PMS_P2;Temp;Humidity;BMP_temperature;BMP_pressure;BME280_temperature;BME280_humidity;BME280_pressure;Samples;Min_cycle;Max_cycle;Signal;HPM_P1;HPM_P2
2022/04/17 00:01:40;;;;;;;4.22;2.72;;;;;;;3.49;77.73;100723.94;6296002;28;20140;-72
2022/04/17 00:04:40;;;;;;;5.60;3.00;;;;;;;3.48;78.65;100726.53;6298364;28;20132;-71
2022/04/17 00:07:42;;;;;;;7.10;2.78;;;;;;;3.49;77.66;100726.53;6296791;28;20056;-71
2022/04/17 00:10:47;;;;;;;4.90;2.90;;;;;;;3.50;77.73;100717.91;6301133;28;20048;-70
2022/04/17 00:13:48;;;;;;;4.47;2.70;;;;;;;3.33;78.44;100718.25;6338779;28;20141;-71
2022/04/17 00:16:49;;;;;;;5.00;2.83;;;;;;;3.36;77.86;100714.78;6321747;28;20048;-75
2022/04/17 00:19:49;;;;;;;6.35;2.88;;;;;;;3.26;79.26;100708.94;6321779;28;20040;-75
2022/04/17 00:22:50;;;;;;;7.90;3.35;;;;;;;3.21;79.07;100714.19;6323059;28;20047;-74
2022/04/17 00:25:51;;;;;;;7.72;2.65;;;;;;;3.23;78.63;100712.44;6323067;28;20040;-75
2022/04/17 00:28:52;;;;;;;6.95;3.60;;;;;;;3.23;78.69;100715.03;6321784;28;20125;-75
2022/04/17 00:31:54;;;;;;;4.78;3.00;;;;;;;3.17;79.26;100709.97;6304650;28;20044;-74
2022/04/17 00:34:54;;;;;;;5.37;2.70;;;;;;;3.16;78.88;100705.69;6304748;28;20044;-75
2022/04/17 00:37:55;;;;;;;6.50;3.22;;;;;;;3.08;80.20;100702.41;6321568;28;20435;-75
2022/04/17 00:40:56;;;;;;;7.63;3.53;;;;;;;3.07;79.55;100692.13;6322478;28;20082;-74
2022/04/17 00:43:57;;;;;;;5.25;3.17;;;;;;;3.05;80.24;100694.75;6322598;28;20036;-75
2022/04/17 00:46:58;;;;;;;5.45;2.80;;;;;;;2.99;80.33;100687.16;6322654;28;20044;-70
2022/04/17 00:49:59;;;;;;;5.55;3.13;;;;;;;3.04;80.08;100687.88;6304113;28;20469;-70
2022/04/17 00:52:59;;;;;;;9.20;3.78;;;;;;;3.11;79.24;100686.03;6322200;28;20067;-70
2022/04/17 00:56:06;;;;;;;5.35;3.15;;;;;;;3.11;79.08;100686.03;6322045;28;20123;-70
2022/04/17 00:59:10;;;;;;;5.30;2.92;;;;;;;3.05;79.77;100687.03;6321071;28;20072;-71
2022/04/17 01:02:15;;;;;;;5.55;3.25;;;;;;;3.02;79.55;100687.06;6337473;28;20094;-70
2022/04/17 01:05:16;;;;;;;8.43;3.20;;;;;;;3.04;79.90;100687.88;6320638;28;20098;-70
2022/04/17 01:08:17;;;;;;;6.20;3.17;;;;;;;3.00;79.36;100692.25;6321747;28;20047;-70
2022/04/17 01:11:18;;;;;;;5.20;3.05;;;;;;;2.94;79.85;100683.78;6321710;28;20484;-70
2022/04/17 01:14:21;;;;;;;8.20;2.72;;;;;;;2.95;79.13;100686.34;6321633;28;20079;-70
2022/04/17 01:17:21;;;;;;;;;;;;;;;2.89;79.91;100693.34;6320777;28;20048;-70
2022/04/17 01:20:22;;;;;;;5.07;2.80;;;;;;;2.89;79.60;100683.03;6320438;28;19920;-70
2022/04/17 01:26:57;;;;;;;5.43;3.08;;;;;;;2.77;79.94;100677.22;6295547;28;20044;-70
2022/04/17 01:29:58;;;;;;;3.90;2.80;;;;;;;2.81;79.23;100675.44;6311982;28;20060;-70
2022/04/17 01:32:59;;;;;;;5.97;2.63;;;;;;;2.77;79.09;100671.22;6295738;28;20063;-70
2022/04/17 01:36:00;;;;;;;5.18;2.63;;;;;;;2.71;79.27;100689.38;6294544;28;20472;-70
2022/04/17 01:39:00;;;;;;;6.93;3.03;;;;;;;2.68;79.48;100674.84;6294934;28;20470;-71
2022/04/17 01:42:02;;;;;;;5.30;3.30;;;;;;;2.76;78.78;100678.13;6311784;28;20049;-71
2022/04/17 01:45:03;;;;;;;5.45;2.42;;;;;;;2.76;77.68;100670.38;6296308;28;20048;-75
2022/04/17 01:48:04;;;;;;;6.05;3.28;;;;;;;2.81;77.90;100675.44;6296403;28;20086;-70
2022/04/17 01:51:05;;;;;;;3.88;2.47;;;;;;;2.75;77.54;100667.84;6297256;28;20094;-71
2022/04/17 01:54:10;;;;;;;5.38;2.88;;;;;;;2.80;77.59;100668.59;6299989;28;20036;-71
2022/04/17 01:57:10;;;;;;;5.20;2.80;;;;;;;2.70;77.91;100667.94;6299650;28;20049;-71
2022/04/17 02:00:12;;;;;;;5.57;2.47;;;;;;;2.73;77.25;100664.44;6301179;28;20080;-71
2022/04/17 02:03:12;;;;;;;9.25;3.47;;;;;;;2.68;77.92;100666.22;6316389;28;20049;-71
2022/04/17 02:06:13;;;;;;;4.18;2.47;;;;;;;2.70;77.52;100657.63;6301049;28;20055;-75
2022/04/17 02:09:15;;;;;;;5.00;3.00;;;;;;;2.76;76.59;100675.53;6301050;28;20044;-75
2022/04/17 02:12:16;;;;;;;5.57;3.00;;;;;;;2.74;77.02;100674.72;6283091;28;20048;-70
2022/04/17 02:15:17;;;;;;;8.65;3.00;;;;;;;2.80;77.21;100678.88;6300723;28;20076;-70
2022/04/17 02:18:18;;;;;;;5.60;2.58;;;;;;;2.81;75.75;100673.72;6299390;28;20049;-75
2022/04/17 02:21:19;;;;;;;5.70;3.22;;;;;;;2.80;76.68;100679.75;6316305;28;20053;-70
2022/04/17 02:24:20;;;;;;;5.25;2.92;;;;;;;2.73;76.89;100669.59;6300513;28;20051;-70
2022/04/17 02:27:21;;;;;;;6.28;2.95;;;;;;;2.60;77.87;100667.25;6299386;28;20032;-71
2022/04/17 02:30:21;;;;;;;5.35;3.20;;;;;;;2.60;77.21;100666.41;6299057;28;20053;-70
2022/04/17 02:33:22;;;;;;;4.53;2.83;;;;;;;2.66;77.32;100673.16;6298013;28;20087;-71
2022/04/17 02:36:23;;;;;;;5.88;3.50;;;;;;;2.72;76.13;100675.59;6297890;28;20218;-74
2022/04/17 02:39:24;;;;;;;4.05;2.70;;;;;;;2.75;75.96;100678.16;6319503;28;20496;-75
2022/04/17 02:42:25;;;;;;;4.70;2.70;;;;;;;2.74;75.61;100671.28;6324216;28;20047;-70
2022/04/17 02:45:28;;;;;;;6.22;2.90;;;;;;;2.71;75.89;100679.91;6324101;28;20044;-70
2022/04/17 02:48:29;;;;;;;8.07;3.17;;;;;;;2.61;76.87;100675.81;6323909;28;20044;-70
2022/04/17 02:51:31;;;;;;;6.20;3.30;;;;;;;2.68;76.29;100682.56;6289267;28;20067;-70
2022/04/17 02:54:32;;;;;;;11.23;3.00;;;;;;;2.71;76.15;100679.06;6322772;28;20089;-74
2022/04/17 02:57:33;;;;;;;4.60;2.70;;;;;;;2.75;75.23;100673.00;6322579;28;20396;-75
2022/04/17 03:05:35;;;;;;;7.32;3.05;;;;;;;2.71;76.42;100676.50;6323744;28;20067;-74
2022/04/17 03:07:13;;;;;;;6.15;3.20;;;;;;;2.59;76.83;100669.84;6322516;28;20130;-71
2022/04/17 03:10:14;;;;;;;8.52;3.20;;;;;;;2.70;76.09;100674.78;6305498;28;20093;-71
2022/04/17 03:13:15;;;;;;;5.47;3.05;;;;;;;2.70;75.95;100678.25;6288654;28;20052;-70
2022/04/17 03:16:16;;;;;;;4.80;3.00;;;;;;;2.72;75.50;100671.31;6305158;28;20063;-75
2022/04/17 03:19:17;;;;;;;3.65;2.63;;;;;;;2.65;75.87;100676.63;6323325;28;20040;-75
2022/04/17 03:22:21;;;;;;;8.02;3.00;;;;;;;2.65;75.85;100677.47;6323154;28;20526;-75
2022/04/17 03:25:22;;;;;;;3.80;2.65;;;;;;;2.66;75.63;100686.03;6338880;28;20071;-74
2022/04/17 03:28:23;;;;;;;5.57;2.78;;;;;;;2.63;76.09;100689.53;6323075;28;20067;-75
2022/04/17 03:31:24;;;;;;;5.22;2.47;;;;;;;2.54;76.88;100690.53;6288409;28;20395;-75
2022/04/17 03:34:24;;;;;;;6.00;2.97;;;;;;;2.64;76.24;100691.22;6321689;28;20204;-75
2022/04/17 03:37:25;;;;;;;6.75;2.78;;;;;;;2.48;76.95;100692.38;6319353;28;20408;-75
2022/04/17 03:40:26;;;;;;;5.05;2.80;;;;;;;2.48;77.50;100693.22;6279741;28;20101;-71
2022/04/17 03:43:27;;;;;;;5.75;2.92;;;;;;;2.52;76.91;100697.44;6296222;28;20044;-74
2022/04/17 03:46:28;;;;;;;7.70;3.38;;;;;;;2.37;77.71;100688.25;6297620;28;20508;-70
2022/04/17 03:49:29;;;;;;;6.03;3.20;;;;;;;2.53;77.49;100690.56;6297373;28;20044;-71
2022/04/17 03:52:50;;;;;;;5.97;3.22;;;;;;;2.59;76.88;100690.44;6312874;28;20044;-75
2022/04/17 03:55:51;;;;;;;5.28;2.90;;;;;;;2.50;77.36;100696.63;6295638;28;20052;-70
2022/04/17 03:58:52;;;;;;;5.45;3.10;;;;;;;2.50;77.23;100693.19;6312914;28;20043;-70
2022/04/17 04:01:53;;;;;;;4.80;2.88;;;;;;;2.55;76.35;100689.69;6297008;28;20096;-70
2022/04/17 04:04:53;;;;;;;5.13;3.10;;;;;;;2.36;77.86;100699.44;6297238;28;20503;-70
2022/04/17 04:07:54;;;;;;;7.68;2.85;;;;;;;2.37;78.13;100692.56;6296011;28;20056;-70
2022/04/17 04:10:55;;;;;;;4.63;3.05;;;;;;;2.35;78.18;100700.31;6295804;28;20083;-74
2022/04/17 04:13:56;;;;;;;5.55;3.00;;;;;;;2.44;77.48;100695.88;6299923;28;20113;-75
2022/04/17 04:16:59;;;;;;;4.28;2.80;;;;;;;2.46;77.10;100691.56;6320602;28;20063;-70
2022/04/17 04:20:01;;;;;;;4.85;3.08;;;;;;;2.52;77.26;100696.59;6320755;28;20089;-74
2022/04/17 04:23:01;;;;;;;5.67;3.13;;;;;;;2.67;77.06;100703.22;6321782;28;20054;-74
2022/04/17 04:26:03;;;;;;;5.15;2.35;;;;;;;2.59;76.36;100703.34;6320606;28;20411;-74
2022/04/17 04:29:05;;;;;;;7.25;3.45;;;;;;;2.54;77.20;100703.41;6320402;28;20488;-75
2022/04/17 04:32:06;;;;;;;5.87;3.13;;;;;;;2.68;76.68;100703.19;6320371;28;20513;-71
2022/04/17 04:35:08;;;;;;;4.05;2.55;;;;;;;2.80;76.36;100708.13;6337745;28;20044;-71
2022/04/17 04:38:09;;;;;;;4.70;2.55;;;;;;;2.84;74.98;100706.31;6322456;28;20123;-70
2022/04/17 04:41:09;;;;;;;4.97;3.00;;;;;;;2.85;74.39;100702.88;6336946;28;20056;-70
2022/04/17 04:44:10;;;;;;;5.57;3.00;;;;;;;2.97;73.42;100702.63;6303104;28;20051;-70
2022/04/17 04:47:11;;;;;;;14.05;5.35;;;;;;;3.09;73.36;100690.38;6321222;28;20055;-71
2022/04/17 04:50:12;;;;;;;4.00;3.03;;;;;;;3.09;72.26;100680.06;6307513;28;20044;-71
2022/04/17 04:53:12;;;;;;;5.03;3.15;;;;;;;3.18;72.04;100685.03;6294638;28;20053;-75
2022/04/17 04:56:13;;;;;;;5.63;2.25;;;;;;;3.32;71.23;100688.19;6294959;28;20048;-75
2022/04/17 04:59:14;;;;;;;5.03;2.72;;;;;;;3.35;71.13;100692.41;6296195;28;20055;-75
2022/04/17 05:02:15;;;;;;;7.43;3.35;;;;;;;3.47;70.38;100699.06;6314176;28;20048;-70
2022/04/17 05:05:16;;;;;;;8.93;3.10;;;;;;;3.56;71.21;100685.94;6303626;28;20055;-70
2022/04/17 05:08:19;;;;;;;6.90;3.33;;;;;;;3.62;69.81;100693.56;6311565;28;20481;-70
2022/04/17 05:11:20;;;;;;;3.45;2.05;;;;;;;3.68;68.82;100687.41;6278863;28;20049;-70
2022/04/17 05:14:22;;;;;;;8.80;3.90;;;;;;;3.74;69.95;100695.84;6278643;28;20079;-70
2022/04/17 05:17:23;;;;;;;9.80;2.75;;;;;;;3.83;69.14;100694.81;6296418;28;20083;-71
2022/04/17 05:20:26;;;;;;;6.88;2.72;;;;;;;3.93;68.85;100700.59;6296591;28;20052;-71
2022/04/17 05:23:29;;;;;;;5.20;3.03;;;;;;;4.00;68.72;100703.00;6302387;28;20059;-70
2022/04/17 05:26:29;;;;;;;3.60;2.70;;;;;;;4.07;67.98;100710.63;6320644;28;20085;-70
2022/04/17 05:29:30;;;;;;;6.88;2.97;;;;;;;4.17;68.19;100705.19;6303266;28;20047;-70
2022/04/17 05:32:31;;;;;;;6.82;2.88;;;;;;;4.27;67.58;100703.25;6321376;28;20067;-70
2022/04/17 05:35:32;;;;;;;5.35;2.63;;;;;;;4.33;66.86;100691.91;6286564;28;20051;-71
2022/04/17 05:38:33;;;;;;;4.47;2.58;;;;;;;4.44;66.46;100701.06;6321449;28;20123;-75
2022/04/17 05:41:34;;;;;;;5.10;2.70;;;;;;;4.50;65.93;100694.06;6303525;28;20495;-75
2022/04/17 05:44:37;;;;;;;6.63;3.40;;;;;;;4.66;66.61;100695.38;6321553;28;20048;-74
2022/04/17 05:47:37;;;;;;;5.70;2.75;;;;;;;4.71;65.65;100690.91;6320207;28;20052;-75
2022/04/17 05:50:38;;;;;;;8.60;3.83;;;;;;;4.84;65.26;100681.94;6289305;28;20052;-75
2022/04/17 05:53:39;;;;;;;6.90;2.67;;;;;;;4.94;63.63;100676.50;6328719;28;20052;-75
2022/04/17 05:56:40;;;;;;;4.07;2.88;;;;;;;5.05;62.87;100683.09;6310801;28;20120;-75
2022/04/17 05:59:41;;;;;;;6.72;2.58;;;;;;;5.25;62.37;100687.69;6278494;28;20051;-76
2022/04/17 06:02:46;;;;;;;4.45;3.00;;;;;;;5.29;60.32;100677.25;6298813;28;20037;-75
2022/04/17 06:05:48;;;;;;;5.82;2.97;;;;;;;5.46;61.15;100685.38;6302466;28;20166;-75
2022/04/17 06:08:48;;;;;;;4.88;3.10;;;;;;;5.61;59.90;100682.31;6319736;28;20531;-75
2022/04/17 06:11:50;;;;;;;5.30;2.78;;;;;;;5.69;59.98;100684.69;6299794;28;20057;-71
2022/04/17 06:14:51;;;;;;;4.97;2.47;;;;;;;5.77;59.53;100694.81;6294472;28;20412;-71
2022/04/17 06:17:52;;;;;;;3.78;2.20;;;;;;;5.85;57.05;100696.25;6294443;28;20060;-70
2022/04/17 06:20:53;;;;;;;5.55;3.05;;;;;;;5.94;57.45;100687.34;6311358;28;20067;-71
2022/04/17 06:23:53;;;;;;;2.97;2.40;;;;;;;5.93;57.36;100692.56;6311145;28;20044;-70
2022/04/17 06:26:54;;;;;;;5.38;2.45;;;;;;;6.13;56.82;100699.75;6325550;28;20052;-71
2022/04/17 06:29:55;;;;;;;4.03;2.72;;;;;;;6.16;55.71;100697.91;6319390;28;20048;-71
2022/04/17 06:32:56;;;;;;;4.75;2.47;;;;;;;6.21;56.07;100692.56;6336397;28;20052;-71
2022/04/17 06:35:56;;;;;;;5.35;2.03;;;;;;;6.31;54.11;100701.72;6318349;28;20044;-70
2022/04/17 06:38:57;;;;;;;5.80;3.10;;;;;;;6.37;54.32;100692.91;6322203;28;20520;-70
2022/04/17 06:41:58;;;;;;;5.43;2.58;;;;;;;6.54;54.01;100707.91;6322925;28;20059;-70
2022/04/17 06:44:59;;;;;;;6.13;1.90;;;;;;;6.75;53.74;100704.56;6305957;28;20492;-70
2022/04/17 06:48:21;;;;;;;2.55;1.60;;;;;;;6.73;51.67;100705.50;6339785;28;20048;-70
2022/04/17 06:51:24;;;;;;;6.43;2.17;;;;;;;6.89;51.30;100705.84;6339720;28;20083;-70
2022/04/17 06:54:24;;;;;;;5.20;2.30;;;;;;;7.05;51.20;100702.63;6322739;28;20315;-70
2022/04/17 06:57:33;;;;;;;6.05;2.63;;;;;;;7.23;52.01;100706.31;6322796;28;20529;-70
2022/04/17 07:00:36;;;;;;;5.68;2.17;;;;;;;7.29;50.97;100710.44;6323798;28;20071;-71
2022/04/17 07:03:36;;;;;;;3.90;2.30;;;;;;;7.26;48.95;100708.78;6323495;28;20047;-70
2022/04/17 07:06:37;;;;;;;4.93;2.30;;;;;;;7.24;49.19;100727.91;6339240;28;20476;-70
2022/04/17 07:09:38;;;;;;;3.08;1.90;;;;;;;7.13;47.88;100717.94;6339151;28;20056;-70
2022/04/17 07:12:39;;;;;;;3.17;1.98;;;;;;;7.25;47.85;100714.88;6339189;28;20134;-71
2022/04/17 07:15:40;;;;;;;2.30;1.63;;;;;;;7.12;47.98;100730.94;6321746;28;20419;-71
2022/04/17 07:18:41;;;;;;;3.60;2.00;;;;;;;7.17;47.76;100711.72;6304905;28;20060;-71
2022/04/17 07:21:42;;;;;;;3.90;1.92;;;;;;;7.59;46.11;100703.22;6296990;28;20048;-70
2022/04/17 07:24:45;;;;;;;3.20;2.15;;;;;;;7.60;47.59;100714.50;6296531;28;20507;-71
2022/04/17 07:27:48;;;;;;;2.60;1.88;;;;;;;7.76;46.20;100707.78;6296478;28;20064;-71
2022/04/17 07:30:49;;;;;;;2.53;1.92;;;;;;;7.84;45.56;100710.06;6296258;28;20074;-70
2022/04/17 07:33:50;;;;;;;4.53;2.25;;;;;;;7.74;45.16;100704.41;6313371;28;20501;-71
2022/04/17 07:36:54;;;;;;;2.53;1.50;;;;;;;7.49;46.33;100708.84;6296387;28;20053;-71
2022/04/17 07:39:55;;;;;;;2.92;1.50;;;;;;;7.47;45.43;100720.16;6296472;28;20052;-71
2022/04/17 07:43:00;;;;;;;7.38;2.53;;;;;;;7.69;46.60;100721.06;6279860;28;20100;-71
2022/04/17 07:46:01;;;;;;;5.63;2.38;;;;;;;7.73;46.71;100705.31;6297457;28;20188;-71
2022/04/17 07:49:02;;;;;;;5.18;2.35;;;;;;;8.03;47.63;100713.66;6296558;28;20040;-71
2022/04/17 07:52:03;;;;;;;3.38;2.20;;;;;;;7.71;46.08;100704.50;6313070;28;20045;-71
2022/04/17 07:55:05;;;;;;;4.07;2.30;;;;;;;8.17;45.11;100709.63;6295928;28;20048;-70
2022/04/17 07:58:12;;;;;;;3.95;1.90;;;;;;;8.64;45.78;100702.50;6297310;28;20040;-71
2022/04/17 08:01:15;;;;;;;5.57;2.40;;;;;;;9.03;46.05;100706.88;6313946;28;20056;-70
2022/04/17 08:04:16;;;;;;;4.07;2.25;;;;;;;8.72;44.99;100720.38;6303256;28;20044;-71
2022/04/17 08:07:23;;;;;;;1.50;1.40;;;;;;;8.53;43.17;100717.72;6320205;28;20052;-70
2022/04/17 08:10:24;;;;;;;3.33;1.73;;;;;;;8.46;43.14;100701.53;6322396;28;20566;-70
2022/04/17 08:13:25;;;;;;;2.45;1.98;;;;;;;8.23;43.74;100707.63;6303634;28;20040;-71
2022/04/17 08:16:27;;;;;;;3.40;2.13;;;;;;;8.58;43.16;100704.50;6337089;28;20105;-70
2022/04/17 08:19:29;;;;;;;3.58;2.00;;;;;;;8.46;44.47;100698.06;6320557;28;20051;-71
2022/04/17 08:22:30;;;;;;;4.95;1.83;;;;;;;8.23;44.62;100704.19;6318097;28;20048;-70
2022/04/17 08:25:32;;;;;;;4.70;1.85;;;;;;;8.52;43.71;100703.00;6292295;28;20037;-70
2022/04/17 08:28:33;;;;;;;;;;;;;;;8.49;44.53;100704.91;6295593;28;20082;-75
2022/04/17 08:31:34;;;;;;;3.05;1.95;;;;;;;8.46;44.09;100693.72;6308721;28;19920;-75
2022/04/17 08:34:35;;;;;;;9.32;2.10;;;;;;;8.35;46.40;100701.09;6319998;28;20070;-76
2022/04/17 08:37:36;;;;;;;6.53;2.00;;;;;;;8.70;44.66;100703.16;6321077;28;20047;-75
2022/04/17 08:40:38;;;;;;;4.13;1.58;;;;;;;8.68;42.76;100698.00;6320038;28;20445;-75
2022/04/17 08:43:42;;;;;;;5.15;1.65;;;;;;;8.92;42.54;100697.88;6321390;28;20097;-75
2022/04/17 08:46:43;;;;;;;15.30;2.22;;;;;;;8.94;42.22;100685.63;6319730;28;20056;-75
2022/04/17 08:49:45;;;;;;;6.50;1.92;;;;;;;8.93;43.60;100683.94;6319223;28;20511;-75
2022/04/17 08:52:51;;;;;;;2.35;1.73;;;;;;;8.92;43.72;100690.91;6322719;28;20059;-75
2022/04/17 08:55:52;;;;;;;5.75;1.88;;;;;;;8.61;44.09;100687.03;6301539;28;20052;-75
2022/04/17 08:58:53;;;;;;;2.45;2.10;;;;;;;8.61;44.48;100674.03;6306123;28;20056;-75
2022/04/17 09:01:54;;;;;;;3.05;1.80;;;;;;;8.49;44.26;100686.72;6318088;28;20039;-74
2022/04/17 09:04:55;;;;;;;6.60;1.75;;;;;;;8.51;43.58;100679.69;6330153;28;20134;-75
2022/04/17 09:07:56;;;;;;;1.40;1.05;;;;;;;8.47;43.45;100679.81;6310760;28;20041;-75
2022/04/17 09:10:58;;;;;;;4.13;1.98;;;;;;;8.74;42.88;100676.09;6293948;28;20052;-75
2022/04/17 09:14:04;;;;;;;2.65;1.50;;;;;;;8.71;42.32;100681.41;6293881;28;20136;-75
2022/04/17 09:17:09;;;;;;;4.57;1.80;;;;;;;9.05;42.13;100680.78;6309831;28;20056;-74
2022/04/17 09:20:22;;;;;;;2.20;1.40;;;;;;;9.28;41.65;100674.53;6319039;28;20143;-75
2022/04/17 09:23:52;;;;;;;2.50;1.38;;;;;;;9.30;42.24;100669.28;6301918;28;20511;-75
2022/04/17 09:26:59;;;;;;;4.65;1.63;;;;;;;9.46;42.63;100668.47;6301428;28;20109;-75
2022/04/17 09:30:00;;;;;;;6.50;1.95;;;;;;;9.57;41.13;100664.53;6318604;28;20078;-71
2022/04/17 09:33:06;;;;;;;5.43;1.77;;;;;;;10.04;40.94;100649.19;6318341;28;20088;-72
2022/04/17 09:36:12;;;;;;;2.03;1.23;;;;;;;9.57;38.98;100652.34;6318395;28;20510;-72
2022/04/17 09:39:15;;;;;;;2.20;1.08;;;;;;;9.27;38.71;100634.63;6311048;28;20056;-71
2022/04/17 09:42:22;;;;;;;;;;;;;;;9.43;39.23;100634.78;6301429;28;20161;-71
2022/04/17 09:45:24;;;;;;;2.83;1.40;;;;;;;9.65;39.53;100631.13;6278883;28;19920;-71
2022/04/17 09:48:29;;;;;;;1.75;1.27;;;;;;;9.86;38.31;100630.13;6293486;28;20051;-70
2022/04/17 09:51:31;;;;;;;6.40;1.30;;;;;;;10.00;37.77;100625.97;6293407;28;20056;-70
2022/04/17 09:54:33;;;;;;;2.20;0.80;;;;;;;9.77;37.16;100627.09;6294877;28;20139;-71
2022/04/17 09:57:39;;;;;;;3.60;1.65;;;;;;;10.12;36.72;100621.91;6292995;28;20136;-71
2022/04/17 10:00:41;;;;;;;1.70;0.85;;;;;;;10.59;34.98;100608.25;6297730;28;20051;-70
2022/04/17 10:03:43;;;;;;;7.00;1.75;;;;;;;10.72;36.10;100611.88;6319667;28;20044;-71
2022/04/17 10:06:45;;;;;;;2.37;1.47;;;;;;;10.73;35.57;100628.38;6319087;28;20090;-71
2022/04/17 10:09:46;;;;;;;3.75;1.52;;;;;;;11.66;36.61;100601.56;6334980;28;20143;-71
2022/04/17 10:12:47;;;;;;;2.03;1.20;;;;;;;11.07;35.08;100611.78;6320131;28;20040;-71
2022/04/17 10:15:51;;;;;;;1.98;1.10;;;;;;;10.39;36.27;100594.47;6324159;28;20044;-70
2022/04/17 10:18:52;;;;;;;1.40;1.00;;;;;;;10.26;36.01;100614.25;6323052;28;20060;-71
2022/04/17 10:21:57;;;;;;;4.05;1.10;;;;;;;9.88;36.79;100606.56;6306118;28;20044;-70
2022/04/17 10:25:02;;;;;;;2.03;1.27;;;;;;;9.77;36.46;100601.88;6298831;28;20063;-71
2022/04/17 10:28:06;;;;;;;2.15;1.10;;;;;;;9.97;36.00;100597.47;6314283;28;20041;-70
2022/04/17 10:31:19;;;;;;;1.77;0.95;;;;;;;10.17;36.09;100599.91;6323876;28;20203;-70
2022/04/17 10:35:07;;;;;;;1.88;1.20;;;;;;;11.41;34.84;100576.81;6304955;28;20508;-70
2022/04/17 10:38:39;;;;;;;1.30;1.00;;;;;;;12.18;35.10;100576.81;6279578;28;20056;-71
2022/04/17 10:41:41;;;;;;;9.80;1.73;;;;;;;11.57;33.25;100573.31;6279087;28;20045;-70
2022/04/17 10:44:43;;;;;;;1.63;0.77;;;;;;;10.71;33.45;100578.03;6300228;28;20443;-70
2022/04/17 10:48:20;;;;;;;1.77;0.60;;;;;;;11.88;30.35;100575.91;6280351;28;20045;-70
2022/04/17 10:51:30;;;;;;;2.92;0.77;;;;;;;11.36;32.06;100575.38;6298044;28;20061;-71
2022/04/17 10:54:53;;;;;;;0.90;0.80;;;;;;;10.98;32.75;100568.72;6313761;28;20579;-75
2022/04/17 10:57:55;;;;;;;0.98;0.90;;;;;;;10.49;34.86;100569.56;6297844;28;20489;-75
2022/04/17 11:00:56;;;;;;;2.58;1.17;;;;;;;10.16;35.72;100559.09;6280317;28;20056;-75
2022/04/17 11:03:57;;;;;;;3.33;0.93;;;;;;;10.24;35.36;100558.72;6298047;28;20086;-75
2022/04/17 11:07:04;;;;;;;1.38;1.10;;;;;;;10.22;35.00;100564.00;6279981;28;20048;-75
2022/04/17 11:10:20;;;;;;;3.55;1.20;;;;;;;10.32;34.79;100555.75;6313463;28;20110;-75
2022/04/17 11:13:24;;;;;;;3.05;1.40;;;;;;;11.24;33.95;100535.97;6296773;28;20488;-71
2022/04/17 11:16:27;;;;;;;1.15;0.98;;;;;;;10.79;31.93;100532.34;6296311;28;20505;-71
2022/04/17 11:19:33;;;;;;;2.55;0.90;;;;;;;10.86;32.83;100545.91;6296180;28;20426;-71
2022/04/17 11:22:38;;;;;;;4.22;1.08;;;;;;;10.85;32.13;100542.47;6313263;28;20048;-72
2022/04/17 11:25:50;;;;;;;2.72;0.82;;;;;;;11.26;32.66;100530.63;6281245;28;20130;-71
2022/04/17 11:28:58;;;;;;;4.70;1.38;;;;;;;12.00;32.28;100539.50;6287632;28;20102;-70
2022/04/17 11:31:59;;;;;;;0.93;0.88;;;;;;;11.04;33.65;100544.06;6335068;28;20048;-70
2022/04/17 11:35:03;;;;;;;3.72;1.27;;;;;;;10.30;34.57;100544.56;6322531;28;20082;-71
2022/04/17 11:38:08;;;;;;;4.32;1.10;;;;;;;10.52;35.81;100539.88;6320732;28;20056;-71
2022/04/17 11:41:09;;;;;;;8.93;1.30;;;;;;;11.69;34.44;100544.72;6304359;28;20056;-71
2022/04/17 11:44:10;;;;;;;1.52;1.10;;;;;;;11.92;33.50;100526.03;6303708;28;20126;-71
2022/04/17 11:47:18;;;;;;;1.40;0.90;;;;;;;11.76;33.16;100511.22;6320625;28;20052;-71
2022/04/17 11:50:38;;;;;;;2.40;1.00;;;;;;;11.56;31.69;100528.06;6304418;28;20066;-71
2022/04/17 11:53:39;;;;;;;2.38;0.93;;;;;;;12.28;30.91;100523.81;6304830;28;20048;-71
2022/04/17 11:56:51;;;;;;;1.60;0.88;;;;;;;12.44;31.28;100531.59;6304330;28;20117;-70
2022/04/17 11:59:57;;;;;;;2.97;0.90;;;;;;;13.06;31.68;100528.59;6322318;28;20044;-71
2022/04/17 12:03:00;;;;;;;5.75;1.02;;;;;;;12.24;32.65;100530.19;6313460;28;20060;-71
2022/04/17 12:06:03;;;;;;;2.40;1.02;;;;;;;11.63;32.99;100518.06;6296841;28;20083;-71
2022/04/17 12:09:04;;;;;;;1.80;0.85;;;;;;;11.72;32.22;100520.16;6299933;28;20086;-71
2022/04/17 12:12:17;;;;;;;1.05;0.90;;;;;;;11.31;33.14;100518.16;6304400;28;20044;-71
2022/04/17 12:15:18;;;;;;;;;;;;;;;11.25;32.22;100514.13;6296014;28;20062;-70
2022/04/17 12:18:19;;;;;;;1.05;0.73;;;;;;;11.23;31.95;100515.13;6301641;28;20277;-70
2022/04/17 12:21:28;;;;;;;0.88;0.80;;;;;;;11.89;31.46;100511.38;6321323;28;20040;-70
2022/04/17 12:24:29;;;;;;;1.73;1.00;;;;;;;11.49;32.45;100513.66;6337097;28;20058;-71
2022/04/17 12:27:30;;;;;;;1.52;1.30;;;;;;;11.26;31.15;100517.56;6320221;28;20046;-70
2022/04/17 12:30:31;;;;;;;1.98;0.80;;;;;;;11.72;31.67;100504.50;6336963;28;20055;-70
2022/04/17 12:33:32;;;;;;;1.80;1.10;;;;;;;11.63;31.47;100507.63;6320062;28;20487;-71
2022/04/17 12:36:33;;;;;;;1.38;0.80;;;;;;;11.78;31.96;100506.75;6319429;28;20040;-70
2022/04/17 12:39:34;;;;;;;1.23;0.82;;;;;;;11.93;29.81;100501.56;6303087;28;20044;-71
2022/04/17 12:42:35;;;;;;;1.70;1.05;;;;;;;11.47;30.02;100490.22;6286307;28;20116;-71
2022/04/17 12:45:36;;;;;;;2.53;1.00;;;;;;;11.25;31.47;100490.59;6336598;28;20044;-71
2022/04/17 12:48:37;;;;;;;1.27;0.77;;;;;;;11.16;31.06;100493.75;6319613;28;20500;-71
2022/04/17 12:51:40;;;;;;;1.67;0.88;;;;;;;10.95;30.74;100487.09;6319669;28;20036;-70
2022/04/17 12:54:42;;;;;;;1.73;1.13;;;;;;;11.29;30.63;100486.91;6302575;28;20496;-70
2022/04/17 12:57:43;;;;;;;3.27;1.20;;;;;;;11.19;30.67;100485.72;6319294;28;20056;-70
2022/04/17 13:00:54;;;;;;;2.35;1.10;;;;;;;11.15;34.29;100479.00;6302523;28;20052;-71
2022/04/17 13:04:11;;;;;;;3.72;0.95;;;;;;;10.66;33.25;100476.50;6320730;28;20063;-70
2022/04/17 13:07:15;;;;;;;2.22;0.90;;;;;;;10.61;32.11;100479.38;6336380;28;20052;-70
2022/04/17 13:10:16;;;;;;;6.32;1.25;;;;;;;10.38;32.37;100474.56;6319205;28;20487;-72
2022/04/17 13:13:17;;;;;;;2.53;1.40;;;;;;;10.40;33.81;100480.53;6319368;28;20478;-72
2022/04/17 13:16:18;;;;;;;2.00;1.10;;;;;;;10.59;33.27;100470.78;6335921;28;20050;-71
2022/04/17 13:19:21;;;;;;;11.20;2.22;;;;;;;10.80;34.47;100465.31;6318935;28;20063;-71
2022/04/17 13:22:22;;;;;;;3.10;2.03;;;;;;;10.82;34.25;100463.47;6335938;28;20052;-71
2022/04/17 13:25:24;;;;;;;3.42;1.90;;;;;;;10.80;33.58;100460.94;6319023;28;20456;-75
2022/04/17 13:28:25;;;;;;;4.87;2.50;;;;;;;10.50;32.60;100458.25;6320052;28;20057;-75
2022/04/17 13:31:25;;;;;;;1.77;1.05;;;;;;;10.37;32.01;100455.44;6319034;28;20048;-75
2022/04/17 13:34:26;;;;;;;2.65;1.00;;;;;;;10.30;32.25;100456.72;6302124;28;20056;-74
2022/04/17 13:40:46;;;;;;;3.95;0.95;;;;;;;10.64;30.46;100455.69;6335546;28;20138;-75
2022/04/17 13:43:47;;;;;;;2.13;1.00;;;;;;;10.85;30.95;100445.88;6319910;28;20507;-75
2022/04/17 13:46:48;;;;;;;1.10;0.85;;;;;;;10.86;31.55;100444.94;6319597;28;20044;-74
2022/04/17 13:49:49;;;;;;;1.85;1.13;;;;;;;10.92;30.81;100438.53;6340746;28;20059;-75
2022/04/17 13:52:50;;;;;;;1.45;0.80;;;;;;;10.87;31.20;100443.16;6325203;28;20064;-75
2022/04/17 13:55:51;;;;;;;3.50;1.08;;;;;;;10.85;32.46;100439.78;6325043;28;20052;-75
2022/04/17 13:58:52;;;;;;;2.53;1.10;;;;;;;10.76;32.36;100435.09;6324897;28;20044;-75
2022/04/17 14:01:52;;;;;;;7.53;2.20;;;;;;;10.94;32.07;100431.44;6340568;28;20052;-75
2022/04/17 14:04:53;;;;;;;2.30;0.88;;;;;;;10.72;32.66;100418.75;6323655;28;20071;-75
2022/04/17 14:07:56;;;;;;;9.20;1.80;;;;;;;10.80;32.02;100431.38;6324731;28;20046;-75
2022/04/17 14:10:56;;;;;;;3.15;0.85;;;;;;;10.48;31.75;100420.97;6324651;28;20044;-75
2022/04/17 14:13:58;;;;;;;2.55;1.00;;;;;;;10.59;31.25;100418.59;6324709;28;20088;-75
2022/04/17 14:16:58;;;;;;;1.00;0.63;;;;;;;10.72;30.46;100412.69;6340058;28;20415;-75
2022/04/17 14:19:59;;;;;;;1.30;0.90;;;;;;;10.96;29.66;100408.72;6323152;28;20052;-75
2022/04/17 14:23:00;;;;;;;2.45;1.75;;;;;;;11.29;30.84;100402.47;6339935;28;20056;-75
2022/04/17 14:26:01;;;;;;;2.90;0.90;;;;;;;11.84;29.59;100393.94;6323061;28;20499;-76
2022/04/17 14:29:02;;;;;;;0.80;0.70;;;;;;;11.54;28.88;100396.63;6293859;28;20037;-75